sensor_id;sensor_type;location;lat;lon;timestamp;temperature;humidity
13344;DHT22;6741;48.964;9.406;2023-11-18T00:01:46;5.50;99.90
13344;DHT22;6741;48.964;9.406;2023-11-18T00:04:14;5.50;99.90
13344;DHT22;6741;48.964;9.406;2023-11-18T00:06:42;5.50;99.90
13344;DHT22;6741;48.964;9.406;2023-11-18T00:09:09;5.50;99.90
13344;DHT22;6741;48.964;9.406;2023-11-18T00:11:38;5.50;99.90
13344;DHT22;6741;48.964;9.406;2023-11-18T00:14:05;5.50;99.90
13344;DHT22;6741;48.964;9.406;2023-11-18T00:16:32;5.60;99.90
13344;DHT22;6741;48.964;9.406;2023-11-18T00:18:59;5.60;99.90
13344;DHT22;6741;48.964;9.406;2023-11-18T00:21:28;5.60;99.90
13344;DHT22;6741;48.964;9.406;2023-11-18T00:23:55;5.60;99.90
13344;DHT22;6741;48.964;9.406;2023-11-18T00:26:22;5.70;99.90
13344;DHT22;6741;48.964;9.406;2023-11-18T00:28:51;5.70;99.90
13344;DHT22;6741;48.964;9.406;2023-11-18T00:31:18;5.60;99.90
13344;DHT22;6741;48.964;9.406;2023-11-18T00:33:45;5.60;99.90
13344;DHT22;6741;48.964;9.406;2023-11-18T00:36:12;5.60;99.90
13344;DHT22;6741;48.964;9.406;2023-11-18T00:38:40;5.60;99.90
13344;DHT22;6741;48.964;9.406;2023-11-18T00:41:07;5.60;99.90
13344;DHT22;6741;48.964;9.406;2023-11-18T00:43:34;5.50;99.90
13344;DHT22;6741;48.964;9.406;2023-11-18T00:46:01;5.50;99.90
13344;DHT22;6741;48.964;9.406;2023-11-18T00:48:29;5.50;99.90
13344;DHT22;6741;48.964;9.406;2023-11-18T00:50:56;5.60;99.90
13344;DHT22;6741;48.964;9.406;2023-11-18T00:53:23;5.60;99.90
13344;DHT22;6741;48.964;9.406;2023-11-18T00:55:51;5.60;99.90
13344;DHT22;6741;48.964;9.406;2023-11-18T00:58:18;5.50;99.90
13344;DHT22;6741;48.964;9.406;2023-11-18T01:00:45;5.50;99.90
13344;DHT22;6741;48.964;9.406;2023-11-18T01:03:12;5.60;99.90
13344;DHT22;6741;48.964;9.406;2023-11-18T01:05:39;5.60;99.90
13344;DHT22;6741;48.964;9.406;2023-11-18T01:08:06;5.60;99.90
13344;DHT22;6741;48.964;9.406;2023-11-18T01:10:34;5.70;99.90
13344;DHT22;6741;48.964;9.406;2023-11-18T01:13:02;5.60;99.90
13344;DHT22;6741;48.964;9.406;2023-11-18T01:15:29;5.60;99.90
13344;DHT22;6741;48.964;9.406;2023-11-18T01:17:58;5.60;99.90
13344;DHT22;6741;48.964;9.406;2023-11-18T01:20:25;5.60;99.90
13344;DHT22;6741;48.964;9.406;2023-11-18T01:22:52;5.60;99.90
13344;DHT22;6741;48.964;9.406;2023-11-18T01:25:18;5.60;99.90
13344;DHT22;6741;48.964;9.406;2023-11-18T01:27:45;5.50;99.90
13344;DHT22;6741;48.964;9.406;2023-11-18T01:30:15;5.50;99.90
13344;DHT22;6741;48.964;9.406;2023-11-18T01:32:41;5.50;99.90
13344;DHT22;6741;48.964;9.406;2023-11-18T01:35:09;5.50;99.90
13344;DHT22;6741;48.964;9.406;2023-11-18T01:37:38;5.50;99.90
13344;DHT22;6741;48.964;9.406;2023-11-18T01:40:06;5.50;99.90
13344;DHT22;6741;48.964;9.406;2023-11-18T01:42:33;5.40;99.90
13344;DHT22;6741;48.964;9.406;2023-11-18T01:45:00;5.40;99.90
13344;DHT22;6741;48.964;9.406;2023-11-18T01:47:30;5.40;99.90
13344;DHT22;6741;48.964;9.406;2023-11-18T01:49:59;5.50;99.90
13344;DHT22;6741;48.964;9.406;2023-11-18T01:52:26;5.50;99.90
13344;DHT22;6741;48.964;9.406;2023-11-18T01:54:55;5.60;99.90
13344;DHT22;6741;48.964;9.406;2023-11-18T01:57:23;5.50;99.90
13344;DHT22;6741;48.964;9.406;2023-11-18T01:59:52;5.50;99.90
13344;DHT22;6741;48.964;9.406;2023-11-18T02:02:19;5.50;99.90
13344;DHT22;6741;48.964;9.406;2023-11-18T02:04:48;5.60;99.90
13344;DHT22;6741;48.964;9.406;2023-11-18T02:07:15;5.60;99.90
13344;DHT22;6741;48.964;9.406;2023-11-18T02:09:43;5.50;99.90
13344;DHT22;6741;48.964;9.406;2023-11-18T02:12:21;5.50;99.90
13344;DHT22;6741;48.964;9.406;2023-11-18T02:14:50;5.50;99.90
13344;DHT22;6741;48.964;9.406;2023-11-18T02:17:19;5.50;99.90
13344;DHT22;6741;48.964;9.406;2023-11-18T02:19:51;5.50;99.90
13344;DHT22;6741;48.964;9.406;2023-11-18T02:22:18;5.50;99.90
13344;DHT22;6741;48.964;9.406;2023-11-18T02:24:47;5.50;99.90
13344;DHT22;6741;48.964;9.406;2023-11-18T02:27:15;5.50;99.90
13344;DHT22;6741;48.964;9.406;2023-11-18T02:29:46;5.50;99.90
13344;DHT22;6741;48.964;9.406;2023-11-18T02:32:20;5.50;99.90
13344;DHT22;6741;48.964;9.406;2023-11-18T02:34:58;5.50;99.90
13344;DHT22;6741;48.964;9.406;2023-11-18T02:37:28;5.50;99.90
13344;DHT22;6741;48.964;9.406;2023-11-18T02:40:01;5.50;99.90
13344;DHT22;6741;48.964;9.406;2023-11-18T02:42:31;5.50;99.90
13344;DHT22;6741;48.964;9.406;2023-11-18T02:44:59;5.40;99.90
13344;DHT22;6741;48.964;9.406;2023-11-18T02:47:26;5.40;99.90
13344;DHT22;6741;48.964;9.406;2023-11-18T02:49:56;5.40;99.90
13344;DHT22;6741;48.964;9.406;2023-11-18T02:52:31;5.40;99.90
13344;DHT22;6741;48.964;9.406;2023-11-18T02:54:58;5.40;99.90
13344;DHT22;6741;48.964;9.406;2023-11-18T02:57:25;5.50;99.90
13344;DHT22;6741;48.964;9.406;2023-11-18T02:59:53;5.50;99.90
13344;DHT22;6741;48.964;9.406;2023-11-18T03:02:20;5.50;99.90
13344;DHT22;6741;48.964;9.406;2023-11-18T03:04:47;5.40;99.90
13344;DHT22;6741;48.964;9.406;2023-11-18T03:07:14;5.40;99.90
13344;DHT22;6741;48.964;9.406;2023-11-18T03:09:42;5.40;99.90
13344;DHT22;6741;48.964;9.406;2023-11-18T03:12:08;5.30;99.90
13344;DHT22;6741;48.964;9.406;2023-11-18T03:14:37;5.40;99.90
13344;DHT22;6741;48.964;9.406;2023-11-18T03:17:05;5.30;99.90
13344;DHT22;6741;48.964;9.406;2023-11-18T03:19:35;5.30;99.90
13344;DHT22;6741;48.964;9.406;2023-11-18T03:22:02;5.30;99.90
13344;DHT22;6741;48.964;9.406;2023-11-18T03:24:29;5.30;99.90
13344;DHT22;6741;48.964;9.406;2023-11-18T03:26:56;5.30;99.90
13344;DHT22;6741;48.964;9.406;2023-11-18T03:29:23;5.20;99.90
13344;DHT22;6741;48.964;9.406;2023-11-18T03:31:50;5.20;99.90
13344;DHT22;6741;48.964;9.406;2023-11-18T03:34:19;5.20;99.90
13344;DHT22;6741;48.964;9.406;2023-11-18T03:36:46;5.20;99.90
13344;DHT22;6741;48.964;9.406;2023-11-18T03:39:13;5.20;99.90
13344;DHT22;6741;48.964;9.406;2023-11-18T03:41:40;5.20;99.90
13344;DHT22;6741;48.964;9.406;2023-11-18T03:44:10;5.20;99.90
13344;DHT22;6741;48.964;9.406;2023-11-18T03:46:36;5.30;99.90
13344;DHT22;6741;48.964;9.406;2023-11-18T03:49:03;5.30;99.90
13344;DHT22;6741;48.964;9.406;2023-11-18T03:51:32;5.30;99.90
13344;DHT22;6741;48.964;9.406;2023-11-18T03:53:59;5.30;99.90
13344;DHT22;6741;48.964;9.406;2023-11-18T03:56:25;5.40;99.90
13344;DHT22;6741;48.964;9.406;2023-11-18T03:58:54;5.30;99.90
13344;DHT22;6741;48.964;9.406;2023-11-18T04:01:21;5.20;99.90
13344;DHT22;6741;48.964;9.406;2023-11-18T04:03:48;5.10;99.90
13344;DHT22;6741;48.964;9.406;2023-11-18T04:06:15;5.10;99.90
13344;DHT22;6741;48.964;9.406;2023-11-18T04:08:44;5.00;99.90
13344;DHT22;6741;48.964;9.406;2023-11-18T04:11:12;5.00;99.90
13344;DHT22;6741;48.964;9.406;2023-11-18T04:13:39;4.90;99.90
13344;DHT22;6741;48.964;9.406;2023-11-18T04:16:10;4.90;99.90
13344;DHT22;6741;48.964;9.406;2023-11-18T04:18:38;4.90;99.90
13344;DHT22;6741;48.964;9.406;2023-11-18T04:21:06;5.00;99.90
13344;DHT22;6741;48.964;9.406;2023-11-18T04:23:34;5.10;99.90
13344;DHT22;6741;48.964;9.406;2023-11-18T04:26:03;5.10;99.90
13344;DHT22;6741;48.964;9.406;2023-11-18T04:28:30;5.10;99.90
13344;DHT22;6741;48.964;9.406;2023-11-18T04:30:57;5.00;99.90
13344;DHT22;6741;48.964;9.406;2023-11-18T04:33:24;5.00;99.90
13344;DHT22;6741;48.964;9.406;2023-11-18T04:35:51;5.00;99.90
13344;DHT22;6741;48.964;9.406;2023-11-18T04:38:18;4.90;99.90
13344;DHT22;6741;48.964;9.406;2023-11-18T04:40:45;4.90;99.90
13344;DHT22;6741;48.964;9.406;2023-11-18T04:43:13;4.90;99.90
13344;DHT22;6741;48.964;9.406;2023-11-18T04:45:41;4.80;99.90
13344;DHT22;6741;48.964;9.406;2023-11-18T04:48:08;4.80;99.90
13344;DHT22;6741;48.964;9.406;2023-11-18T04:50:35;4.80;99.90
13344;DHT22;6741;48.964;9.406;2023-11-18T04:53:04;4.80;99.90
13344;DHT22;6741;48.964;9.406;2023-11-18T04:55:36;4.80;99.90
13344;DHT22;6741;48.964;9.406;2023-11-18T04:58:02;4.80;99.90
13344;DHT22;6741;48.964;9.406;2023-11-18T05:00:32;4.80;99.90
13344;DHT22;6741;48.964;9.406;2023-11-18T05:02:59;4.80;99.90
13344;DHT22;6741;48.964;9.406;2023-11-18T05:05:26;4.80;99.90
13344;DHT22;6741;48.964;9.406;2023-11-18T05:07:53;4.80;99.90
13344;DHT22;6741;48.964;9.406;2023-11-18T05:10:20;4.90;99.90
13344;DHT22;6741;48.964;9.406;2023-11-18T05:12:47;4.90;99.90
13344;DHT22;6741;48.964;9.406;2023-11-18T05:15:21;4.90;99.90
13344;DHT22;6741;48.964;9.406;2023-11-18T05:17:51;4.90;99.90
13344;DHT22;6741;48.964;9.406;2023-11-18T05:20:19;4.90;99.90
13344;DHT22;6741;48.964;9.406;2023-11-18T05:22:46;5.00;99.90
13344;DHT22;6741;48.964;9.406;2023-11-18T05:25:13;5.00;99.90
13344;DHT22;6741;48.964;9.406;2023-11-18T05:27:40;5.00;99.90
13344;DHT22;6741;48.964;9.406;2023-11-18T05:30:08;5.00;99.90
13344;DHT22;6741;48.964;9.406;2023-11-18T05:32:36;5.00;99.90
13344;DHT22;6741;48.964;9.406;2023-11-18T05:35:05;5.00;99.90
13344;DHT22;6741;48.964;9.406;2023-11-18T05:37:31;4.90;99.90
13344;DHT22;6741;48.964;9.406;2023-11-18T05:40:01;4.90;99.90
13344;DHT22;6741;48.964;9.406;2023-11-18T05:42:32;4.90;99.90
13344;DHT22;6741;48.964;9.406;2023-11-18T05:45:01;5.00;99.90
13344;DHT22;6741;48.964;9.406;2023-11-18T05:47:28;5.00;99.90
13344;DHT22;6741;48.964;9.406;2023-11-18T05:49:55;4.90;99.90
13344;DHT22;6741;48.964;9.406;2023-11-18T05:52:23;4.90;99.90
13344;DHT22;6741;48.964;9.406;2023-11-18T05:54:50;4.90;99.90
13344;DHT22;6741;48.964;9.406;2023-11-18T05:57:17;4.90;99.90
13344;DHT22;6741;48.964;9.406;2023-11-18T05:59:45;4.90;99.90
13344;DHT22;6741;48.964;9.406;2023-11-18T06:02:13;4.90;99.90
13344;DHT22;6741;48.964;9.406;2023-11-18T06:04:43;4.80;99.90
13344;DHT22;6741;48.964;9.406;2023-11-18T06:07:10;4.80;99.90
13344;DHT22;6741;48.964;9.406;2023-11-18T06:09:40;4.80;99.90
13344;DHT22;6741;48.964;9.406;2023-11-18T06:12:07;4.70;99.90
13344;DHT22;6741;48.964;9.406;2023-11-18T06:14:36;4.60;99.90
13344;DHT22;6741;48.964;9.406;2023-11-18T06:17:03;4.60;99.90
13344;DHT22;6741;48.964;9.406;2023-11-18T06:19:32;4.50;99.90
13344;DHT22;6741;48.964;9.406;2023-11-18T06:21:59;4.40;99.90
13344;DHT22;6741;48.964;9.406;2023-11-18T06:24:27;4.50;99.90
13344;DHT22;6741;48.964;9.406;2023-11-18T06:26:55;4.40;99.90
13344;DHT22;6741;48.964;9.406;2023-11-18T06:29:23;4.40;99.90
13344;DHT22;6741;48.964;9.406;2023-11-18T06:31:50;4.30;99.90
13344;DHT22;6741;48.964;9.406;2023-11-18T06:34:17;4.20;99.90
13344;DHT22;6741;48.964;9.406;2023-11-18T06:36:46;4.20;99.90
13344;DHT22;6741;48.964;9.406;2023-11-18T06:39:13;4.20;99.90
13344;DHT22;6741;48.964;9.406;2023-11-18T06:41:41;4.10;99.90
13344;DHT22;6741;48.964;9.406;2023-11-18T06:44:15;4.10;99.90
13344;DHT22;6741;48.964;9.406;2023-11-18T06:46:44;4.00;99.90
13344;DHT22;6741;48.964;9.406;2023-11-18T06:49:11;4.00;99.90
13344;DHT22;6741;48.964;9.406;2023-11-18T06:51:41;4.00;99.90
13344;DHT22;6741;48.964;9.406;2023-11-18T06:54:08;4.10;99.90
13344;DHT22;6741;48.964;9.406;2023-11-18T06:56:36;4.10;99.90
13344;DHT22;6741;48.964;9.406;2023-11-18T06:59:04;4.10;99.90
13344;DHT22;6741;48.964;9.406;2023-11-18T07:01:33;4.20;99.90
13344;DHT22;6741;48.964;9.406;2023-11-18T07:04:01;4.20;99.90
13344;DHT22;6741;48.964;9.406;2023-11-18T07:06:28;4.20;99.90
13344;DHT22;6741;48.964;9.406;2023-11-18T07:08:55;4.30;99.90
13344;DHT22;6741;48.964;9.406;2023-11-18T07:11:26;4.30;99.90
13344;DHT22;6741;48.964;9.406;2023-11-18T07:13:53;4.30;99.90
13344;DHT22;6741;48.964;9.406;2023-11-18T07:16:23;4.40;99.90
13344;DHT22;6741;48.964;9.406;2023-11-18T07:18:52;4.40;99.90
13344;DHT22;6741;48.964;9.406;2023-11-18T07:21:19;4.50;99.90
13344;DHT22;6741;48.964;9.406;2023-11-18T07:23:46;4.40;99.90
13344;DHT22;6741;48.964;9.406;2023-11-18T07:26:13;4.50;99.90
13344;DHT22;6741;48.964;9.406;2023-11-18T07:28:40;4.50;99.90
13344;DHT22;6741;48.964;9.406;2023-11-18T07:31:09;4.50;99.90
13344;DHT22;6741;48.964;9.406;2023-11-18T07:33:36;4.50;99.90
13344;DHT22;6741;48.964;9.406;2023-11-18T07:36:05;4.50;99.90
13344;DHT22;6741;48.964;9.406;2023-11-18T07:38:36;4.60;99.90
13344;DHT22;6741;48.964;9.406;2023-11-18T07:41:03;4.70;99.90
13344;DHT22;6741;48.964;9.406;2023-11-18T07:43:33;4.80;99.90
13344;DHT22;6741;48.964;9.406;2023-11-18T07:46:02;4.90;99.90
13344;DHT22;6741;48.964;9.406;2023-11-18T07:48:28;5.00;99.90
13344;DHT22;6741;48.964;9.406;2023-11-18T07:50:56;5.00;99.90
13344;DHT22;6741;48.964;9.406;2023-11-18T07:53:25;5.10;99.90
13344;DHT22;6741;48.964;9.406;2023-11-18T07:55:55;5.20;99.90
13344;DHT22;6741;48.964;9.406;2023-11-18T07:58:22;5.40;99.90
13344;DHT22;6741;48.964;9.406;2023-11-18T08:00:49;5.40;99.90
13344;DHT22;6741;48.964;9.406;2023-11-18T08:03:16;5.40;99.90
13344;DHT22;6741;48.964;9.406;2023-11-18T08:05:44;5.50;99.90
13344;DHT22;6741;48.964;9.406;2023-11-18T08:08:11;5.60;99.90
13344;DHT22;6741;48.964;9.406;2023-11-18T08:10:41;5.50;99.90
13344;DHT22;6741;48.964;9.406;2023-11-18T08:13:09;5.60;99.90
13344;DHT22;6741;48.964;9.406;2023-11-18T08:15:38;5.80;99.90
13344;DHT22;6741;48.964;9.406;2023-11-18T08:18:06;5.80;99.90
13344;DHT22;6741;48.964;9.406;2023-11-18T08:20:33;5.90;99.90
13344;DHT22;6741;48.964;9.406;2023-11-18T08:23:00;5.90;99.90
13344;DHT22;6741;48.964;9.406;2023-11-18T08:25:26;6.00;99.90
13344;DHT22;6741;48.964;9.406;2023-11-18T08:27:57;6.10;99.90
13344;DHT22;6741;48.964;9.406;2023-11-18T08:30:24;6.20;99.90
13344;DHT22;6741;48.964;9.406;2023-11-18T08:32:51;6.20;99.90
13344;DHT22;6741;48.964;9.406;2023-11-18T08:35:18;6.10;99.90
13344;DHT22;6741;48.964;9.406;2023-11-18T08:37:47;6.20;99.90
13344;DHT22;6741;48.964;9.406;2023-11-18T08:40:14;6.20;99.90
13344;DHT22;6741;48.964;9.406;2023-11-18T08:42:42;6.30;99.90
13344;DHT22;6741;48.964;9.406;2023-11-18T08:45:15;6.40;99.90
13344;DHT22;6741;48.964;9.406;2023-11-18T08:47:44;6.40;99.90
13344;DHT22;6741;48.964;9.406;2023-11-18T08:50:15;6.30;99.90
13344;DHT22;6741;48.964;9.406;2023-11-18T08:52:42;6.40;99.90
13344;DHT22;6741;48.964;9.406;2023-11-18T08:55:12;6.40;99.90
13344;DHT22;6741;48.964;9.406;2023-11-18T08:57:44;6.40;99.90
13344;DHT22;6741;48.964;9.406;2023-11-18T09:00:19;6.40;99.90
13344;DHT22;6741;48.964;9.406;2023-11-18T09:03:01;6.40;99.90
13344;DHT22;6741;48.964;9.406;2023-11-18T09:05:32;6.60;99.90
13344;DHT22;6741;48.964;9.406;2023-11-18T09:08:01;6.60;99.90
13344;DHT22;6741;48.964;9.406;2023-11-18T09:10:32;6.70;99.90
13344;DHT22;6741;48.964;9.406;2023-11-18T09:12:59;6.70;99.90
13344;DHT22;6741;48.964;9.406;2023-11-18T09:15:27;6.80;99.90
13344;DHT22;6741;48.964;9.406;2023-11-18T09:17:56;6.90;99.90
13344;DHT22;6741;48.964;9.406;2023-11-18T09:20:23;6.90;99.90
13344;DHT22;6741;48.964;9.406;2023-11-18T09:22:51;6.80;99.90
13344;DHT22;6741;48.964;9.406;2023-11-18T09:25:21;6.80;99.90
13344;DHT22;6741;48.964;9.406;2023-11-18T09:27:48;6.90;99.90
13344;DHT22;6741;48.964;9.406;2023-11-18T09:30:15;6.90;99.90
13344;DHT22;6741;48.964;9.406;2023-11-18T09:32:44;7.10;99.90
13344;DHT22;6741;48.964;9.406;2023-11-18T09:35:13;7.30;99.90
13344;DHT22;6741;48.964;9.406;2023-11-18T09:37:40;7.40;99.90
13344;DHT22;6741;48.964;9.406;2023-11-18T09:40:09;7.60;99.90
13344;DHT22;6741;48.964;9.406;2023-11-18T09:42:40;7.80;99.90
13344;DHT22;6741;48.964;9.406;2023-11-18T09:45:09;8.00;99.90
13344;DHT22;6741;48.964;9.406;2023-11-18T09:47:43;8.00;99.90
13344;DHT22;6741;48.964;9.406;2023-11-18T09:50:17;8.20;99.90
13344;DHT22;6741;48.964;9.406;2023-11-18T09:52:48;8.20;99.90
13344;DHT22;6741;48.964;9.406;2023-11-18T09:55:24;8.30;99.90
13344;DHT22;6741;48.964;9.406;2023-11-18T09:57:58;8.20;99.90
13344;DHT22;6741;48.964;9.406;2023-11-18T10:00:30;8.40;99.90
13344;DHT22;6741;48.964;9.406;2023-11-18T10:03:00;8.40;93.90
13344;DHT22;6741;48.964;9.406;2023-11-18T10:05:28;8.60;83.70
13344;DHT22;6741;48.964;9.406;2023-11-18T10:07:56;8.70;75.80
13344;DHT22;6741;48.964;9.406;2023-11-18T10:10:24;8.70;53.60
13344;DHT22;6741;48.964;9.406;2023-11-18T10:13:02;8.70;87.50
13344;DHT22;6741;48.964;9.406;2023-11-18T10:15:34;8.70;8.60
13344;DHT22;6741;48.964;9.406;2023-11-18T10:18:02;8.90;25.20
13344;DHT22;6741;48.964;9.406;2023-11-18T10:20:46;8.90;9.80
13344;DHT22;6741;48.964;9.406;2023-11-18T10:23:14;8.80;1.00
13344;DHT22;6741;48.964;9.406;2023-11-18T10:25:45;8.70;33.80
13344;DHT22;6741;48.964;9.406;2023-11-18T10:28:21;8.90;23.40
13344;DHT22;6741;48.964;9.406;2023-11-18T10:30:49;9.10;16.50
13344;DHT22;6741;48.964;9.406;2023-11-18T10:33:18;9.20;6.10
13344;DHT22;6741;48.964;9.406;2023-11-18T10:35:49;9.20;16.20
13344;DHT22;6741;48.964;9.406;2023-11-18T10:38:19;9.00;21.00
13344;DHT22;6741;48.964;9.406;2023-11-18T10:40:46;8.80;1.00
13344;DHT22;6741;48.964;9.406;2023-11-18T10:43:14;8.90;36.90
13344;DHT22;6741;48.964;9.406;2023-11-18T10:45:42;9.10;21.10
13344;DHT22;6741;48.964;9.406;2023-11-18T10:48:13;8.90;1.00
13344;DHT22;6741;48.964;9.406;2023-11-18T10:50:45;8.80;1.00
13344;DHT22;6741;48.964;9.406;2023-11-18T10:53:12;8.80;3.70
13344;DHT22;6741;48.964;9.406;2023-11-18T10:55:41;9.00;1.00
13344;DHT22;6741;48.964;9.406;2023-11-18T10:58:08;9.00;1.00
13344;DHT22;6741;48.964;9.406;2023-11-18T11:00:46;8.90;8.20
13344;DHT22;6741;48.964;9.406;2023-11-18T11:03:13;8.90;10.80
13344;DHT22;6741;48.964;9.406;2023-11-18T11:05:40;8.90;1.00
13344;DHT22;6741;48.964;9.406;2023-11-18T11:08:13;8.80;1.00
13344;DHT22;6741;48.964;9.406;2023-11-18T11:10:41;8.70;1.00
13344;DHT22;6741;48.964;9.406;2023-11-18T11:13:09;8.80;6.30
13344;DHT22;6741;48.964;9.406;2023-11-18T11:15:41;8.60;1.00
13344;DHT22;6741;48.964;9.406;2023-11-18T11:18:12;8.70;4.30
13344;DHT22;6741;48.964;9.406;2023-11-18T11:20:57;8.70;1.00
13344;DHT22;6741;48.964;9.406;2023-11-18T11:23:38;8.80;1.00
13344;DHT22;6741;48.964;9.406;2023-11-18T11:26:18;8.80;1.00
13344;DHT22;6741;48.964;9.406;2023-11-18T11:28:59;8.80;1.00
13344;DHT22;6741;48.964;9.406;2023-11-18T11:31:31;8.90;1.00
13344;DHT22;6741;48.964;9.406;2023-11-18T11:34:02;9.00;1.00
13344;DHT22;6741;48.964;9.406;2023-11-18T11:36:37;9.00;1.00
13344;DHT22;6741;48.964;9.406;2023-11-18T11:39:08;9.10;1.00
13344;DHT22;6741;48.964;9.406;2023-11-18T11:41:43;9.10;1.00
13344;DHT22;6741;48.964;9.406;2023-11-18T11:44:13;9.10;1.00
13344;DHT22;6741;48.964;9.406;2023-11-18T11:46:40;9.20;1.00
13344;DHT22;6741;48.964;9.406;2023-11-18T11:49:10;9.10;1.00
13344;DHT22;6741;48.964;9.406;2023-11-18T11:51:48;9.20;1.00
13344;DHT22;6741;48.964;9.406;2023-11-18T11:54:21;9.30;1.00
13344;DHT22;6741;48.964;9.406;2023-11-18T11:56:50;9.30;1.00
13344;DHT22;6741;48.964;9.406;2023-11-18T11:59:35;9.20;1.00
13344;DHT22;6741;48.964;9.406;2023-11-18T12:02:03;9.10;1.00
13344;DHT22;6741;48.964;9.406;2023-11-18T12:04:33;9.10;1.00
13344;DHT22;6741;48.964;9.406;2023-11-18T12:07:05;9.10;1.00
13344;DHT22;6741;48.964;9.406;2023-11-18T12:09:36;8.90;1.00
13344;DHT22;6741;48.964;9.406;2023-11-18T12:12:05;9.00;1.00
13344;DHT22;6741;48.964;9.406;2023-11-18T12:14:50;9.00;1.00
13344;DHT22;6741;48.964;9.406;2023-11-18T12:17:18;9.10;1.00
13344;DHT22;6741;48.964;9.406;2023-11-18T12:19:48;9.10;1.00
13344;DHT22;6741;48.964;9.406;2023-11-18T12:22:16;9.10;2.40
13344;DHT22;6741;48.964;9.406;2023-11-18T12:27:56;8.90;1.00
13344;DHT22;6741;48.964;9.406;2023-11-18T12:30:42;8.80;24.40
13344;DHT22;6741;48.964;9.406;2023-11-18T12:33:21;8.80;58.10
13344;DHT22;6741;48.964;9.406;2023-11-18T12:39:27;8.90;46.60
13344;DHT22;6741;48.964;9.406;2023-11-18T12:42:03;8.80;64.00
13344;DHT22;6741;48.964;9.406;2023-11-18T12:44:53;8.70;25.30
13344;DHT22;6741;48.964;9.406;2023-11-18T12:47:29;8.70;22.50
13344;DHT22;6741;48.964;9.406;2023-11-18T12:49:58;8.70;42.80
13344;DHT22;6741;48.964;9.406;2023-11-18T12:52:26;8.70;13.30
13344;DHT22;6741;48.964;9.406;2023-11-18T12:54:54;8.60;28.50
13344;DHT22;6741;48.964;9.406;2023-11-18T12:57:26;8.60;20.30
13344;DHT22;6741;48.964;9.406;2023-11-18T12:59:58;8.60;11.30
13344;DHT22;6741;48.964;9.406;2023-11-18T13:02:26;8.60;3.90
13344;DHT22;6741;48.964;9.406;2023-11-18T13:04:52;8.50;14.70
13344;DHT22;6741;48.964;9.406;2023-11-18T13:07:19;8.50;1.00
13344;DHT22;6741;48.964;9.406;2023-11-18T13:09:47;8.50;1.00
13344;DHT22;6741;48.964;9.406;2023-11-18T13:12:15;8.50;21.90
13344;DHT22;6741;48.964;9.406;2023-11-18T13:14:43;8.40;24.00
13344;DHT22;6741;48.964;9.406;2023-11-18T13:17:14;8.30;34.80
13344;DHT22;6741;48.964;9.406;2023-11-18T13:19:42;8.30;1.00
13344;DHT22;6741;48.964;9.406;2023-11-18T13:22:10;8.30;1.00
13344;DHT22;6741;48.964;9.406;2023-11-18T13:24:38;8.30;1.00
13344;DHT22;6741;48.964;9.406;2023-11-18T13:27:06;8.20;31.20
13344;DHT22;6741;48.964;9.406;2023-11-18T13:29:35;8.20;49.40
13344;DHT22;6741;48.964;9.406;2023-11-18T13:32:05;8.20;57.30
13344;DHT22;6741;48.964;9.406;2023-11-18T13:34:35;8.20;99.90
13344;DHT22;6741;48.964;9.406;2023-11-18T13:37:03;8.20;99.90
13344;DHT22;6741;48.964;9.406;2023-11-18T13:39:31;8.20;99.90
13344;DHT22;6741;48.964;9.406;2023-11-18T13:41:59;8.20;94.50
13344;DHT22;6741;48.964;9.406;2023-11-18T13:44:44;8.20;86.30
13344;DHT22;6741;48.964;9.406;2023-11-18T13:47:11;8.20;96.50
13344;DHT22;6741;48.964;9.406;2023-11-18T13:49:40;8.10;89.20
13344;DHT22;6741;48.964;9.406;2023-11-18T13:52:07;8.00;94.00
13344;DHT22;6741;48.964;9.406;2023-11-18T13:54:37;8.00;84.40
13344;DHT22;6741;48.964;9.406;2023-11-18T13:57:05;8.00;71.30
13344;DHT22;6741;48.964;9.406;2023-11-18T13:59:33;8.00;94.60
13344;DHT22;6741;48.964;9.406;2023-11-18T14:02:01;8.00;77.40
13344;DHT22;6741;48.964;9.406;2023-11-18T14:04:30;8.10;48.40
13344;DHT22;6741;48.964;9.406;2023-11-18T14:07:01;8.20;44.90
13344;DHT22;6741;48.964;9.406;2023-11-18T14:09:29;8.20;44.60
13344;DHT22;6741;48.964;9.406;2023-11-18T14:11:58;8.10;77.90
13344;DHT22;6741;48.964;9.406;2023-11-18T14:14:25;8.20;49.30
13344;DHT22;6741;48.964;9.406;2023-11-18T14:16:53;8.30;43.50
13344;DHT22;6741;48.964;9.406;2023-11-18T14:19:23;8.30;76.70
13344;DHT22;6741;48.964;9.406;2023-11-18T14:21:50;8.30;82.70
13344;DHT22;6741;48.964;9.406;2023-11-18T14:24:19;8.30;99.90
13344;DHT22;6741;48.964;9.406;2023-11-18T14:26:48;8.20;99.90
13344;DHT22;6741;48.964;9.406;2023-11-18T14:29:16;8.10;78.90
13344;DHT22;6741;48.964;9.406;2023-11-18T14:31:44;8.10;96.80
13344;DHT22;6741;48.964;9.406;2023-11-18T14:34:11;8.10;92.30
13344;DHT22;6741;48.964;9.406;2023-11-18T14:36:39;8.20;91.00
13344;DHT22;6741;48.964;9.406;2023-11-18T14:39:08;8.20;67.20
13344;DHT22;6741;48.964;9.406;2023-11-18T14:41:39;8.20;86.10
13344;DHT22;6741;48.964;9.406;2023-11-18T14:44:06;8.20;99.90
13344;DHT22;6741;48.964;9.406;2023-11-18T14:46:35;8.20;99.90
13344;DHT22;6741;48.964;9.406;2023-11-18T14:49:04;8.20;88.30
13344;DHT22;6741;48.964;9.406;2023-11-18T14:51:31;8.20;63.60
13344;DHT22;6741;48.964;9.406;2023-11-18T14:53:58;8.20;68.20
13344;DHT22;6741;48.964;9.406;2023-11-18T14:56:25;8.10;94.20
13344;DHT22;6741;48.964;9.406;2023-11-18T14:58:53;8.00;99.90
13344;DHT22;6741;48.964;9.406;2023-11-18T15:01:20;8.00;99.90
13344;DHT22;6741;48.964;9.406;2023-11-18T15:03:47;7.90;99.90
13344;DHT22;6741;48.964;9.406;2023-11-18T15:06:13;7.90;99.90
13344;DHT22;6741;48.964;9.406;2023-11-18T15:08:41;7.80;99.90
13344;DHT22;6741;48.964;9.406;2023-11-18T15:11:08;7.70;99.90
13344;DHT22;6741;48.964;9.406;2023-11-18T15:13:35;7.60;99.90
13344;DHT22;6741;48.964;9.406;2023-11-18T15:16:04;7.60;99.90
13344;DHT22;6741;48.964;9.406;2023-11-18T15:18:32;7.60;99.90
13344;DHT22;6741;48.964;9.406;2023-11-18T15:21:01;7.60;99.90
13344;DHT22;6741;48.964;9.406;2023-11-18T15:23:28;7.60;99.90
13344;DHT22;6741;48.964;9.406;2023-11-18T15:25:57;7.60;99.90
13344;DHT22;6741;48.964;9.406;2023-11-18T15:28:24;7.60;99.90
13344;DHT22;6741;48.964;9.406;2023-11-18T15:30:51;7.60;99.90
13344;DHT22;6741;48.964;9.406;2023-11-18T15:33:19;7.60;99.90
13344;DHT22;6741;48.964;9.406;2023-11-18T15:35:47;7.60;99.90
13344;DHT22;6741;48.964;9.406;2023-11-18T15:38:14;7.60;99.90
13344;DHT22;6741;48.964;9.406;2023-11-18T15:40:43;7.50;99.90
13344;DHT22;6741;48.964;9.406;2023-11-18T15:43:10;7.60;99.90
13344;DHT22;6741;48.964;9.406;2023-11-18T15:45:37;7.60;99.90
13344;DHT22;6741;48.964;9.406;2023-11-18T15:48:05;7.60;99.90
13344;DHT22;6741;48.964;9.406;2023-11-18T15:50:37;7.60;99.90
13344;DHT22;6741;48.964;9.406;2023-11-18T15:53:04;7.50;99.90
13344;DHT22;6741;48.964;9.406;2023-11-18T15:55:32;7.50;99.90
13344;DHT22;6741;48.964;9.406;2023-11-18T15:58:02;7.50;99.90
13344;DHT22;6741;48.964;9.406;2023-11-18T16:00:31;7.50;99.90
13344;DHT22;6741;48.964;9.406;2023-11-18T16:03:02;7.50;99.90
13344;DHT22;6741;48.964;9.406;2023-11-18T16:05:34;7.50;99.90
13344;DHT22;6741;48.964;9.406;2023-11-18T16:08:03;7.50;99.90
13344;DHT22;6741;48.964;9.406;2023-11-18T16:10:32;7.50;99.90
13344;DHT22;6741;48.964;9.406;2023-11-18T16:13:00;7.50;99.90
13344;DHT22;6741;48.964;9.406;2023-11-18T16:15:28;7.50;99.90
13344;DHT22;6741;48.964;9.406;2023-11-18T16:17:57;7.50;99.90
13344;DHT22;6741;48.964;9.406;2023-11-18T16:20:26;7.40;99.90
13344;DHT22;6741;48.964;9.406;2023-11-18T16:22:55;7.50;99.90